Weather at Sjöbo Air Base [CLOSED]

Public forecast

Using degrees Celsius for public forecast. Weather courtesy of forecast.io.

Closest aviation weather report (METAR) to Sjöbo Air Base

Closest report is Malmö Sturup Airport, 11.1 nm (20.5 km) WSW.

2024/05/30 10:20 (retrieved 31 minutes ago)

ESMS 301020Z 14009KT 9999 FEW021 19/13 Q1008

Closest aviation forecast (TAF) to Sjöbo Air Base

Closest forecast is Malmö Sturup Airport, 11.1 nm (20.5 km) WSW.

2024/05/30 09:37 (retrieved 1 hour ago)

TAF ESMS 300816Z 3009/3109 13010KT 9999 SCT020 BKN040 TEMPO 3009/3010 BKN012 FEW020CB TEMPO 3010/3022 SCT020CB TEMPO 3022/3109 3000 BR BKN006 FEW020CB